Anvik, AK

7:24 PM AKST on November 13, 2019 (GMT -0900)
Anvik | | Change Station
Active Advisory: Wind Advisory

Elev 308 ft 62.65 °N, 160.19 °W | Updated 28 minutes ago

Clear
Clear
5 °F
Feels Like -15 °F
N
20
Wind Variable Wind from NE
Gusts 31 mph

Today
High -- | Low -- °F
--% Chance of Precip.
Yesterday
High -- | Low -- °F
Precip. -- in
Pressure 29.94 in
Visibility 10.0 miles
Clouds Clear
Windchill -15 °F
Dew Point -5 °F
Humidity 63%
Rainfall 0.00 in
Snow Depth Not available.
9:51 AM 4:57 PM
Full, 97% visible
METAR PANV 140356Z AUTO 04017G27KT 10SM CLR M15/M21 A2957 RMK AO2 PK WND 03027/0348 SLP138 T11501206 FZRANO TSNO
Pressure 29.94 in
Visibility 10.0 miles
Clouds Clear
Windchill -15 °F
Dew Point -5 °F
Humidity 63%
Rainfall 0.00 in
Snow Depth Not available.
9:51 AM 4:57 PM
Full, 97% visible
METAR PANV 140356Z AUTO 04017G27KT 10SM CLR M15/M21 A2957 RMK AO2 PK WND 03027/0348 SLP138 T11501206 FZRANO TSNO

Get Your Daily Forecast Email!

Thanks for signing up!

Be on the lookout for a verification email in your inbox.

You'll start receiving severe weather alerts in your inbox..

×

10-Day Weather Forecast

Almanac

Astronomy

Nov. 13, 2019 Rise Set
Actual Time
Civil Twilight
Nautical Twilight
Astronomical Twilight
Moon
Length of Visible Light
Length of Day
Tomorrow will be .
, % of the Moon is Illuminated

Today's Extremes

State Highs State Lows

Community

WunderPhotos

Category 6

Welcome to Category 6. This is the collective home for Weather Underground's featured writeups by Dr. Jeff Masters (right), Bob Henson (left), Chris Burt, and other regular contributors.

Nearby

Air Quality

  Air Quality AQ Index Pollutant
Not available.

Snow Depth

Station Depth Elevation

Earthquake Activity

City Distance Mag. Time & Date
Minimum magnitude displayed is 2.5.

Coastal Water Temperatures

Place Temperature

Stations

Nearby Weather Stations

Station Location Temp. Windchill Dew Point Humidity Wind Precip. Elev Updated Type
                   

Watches & Warnings

Wind Advisory
Issued: 12:55 PM AKST Nov. 13, 2019 – National Weather Service

... Wind Advisory remains in effect until noon akst Thursday...

* what... northeast winds 20 to 30 mph with gust 45 mph.

* Where... lower Yukon valley.

* When... until noon akst Thursday.

* Impacts... gusty winds could blow around unsecured objects.
Blowing snow may reduce the visibility at times.

Precautionary/preparedness actions...

A Wind Advisory means that strong winds are occurring or
expected. Travel may be difficult. Secure loose objects which may
be blown about by the wind.